sensor_id;sensor_type;location;lat;lon;timestamp;temperature;humidity
31677;DHT22;18385;51.572;6.578;2023-04-03T00:00:30;5.30;56.00
31677;DHT22;18385;51.572;6.578;2023-04-03T00:02:57;5.30;56.00
31677;DHT22;18385;51.572;6.578;2023-04-03T00:05:23;5.20;56.00
31677;DHT22;18385;51.572;6.578;2023-04-03T00:07:48;5.20;56.20
31677;DHT22;18385;51.572;6.578;2023-04-03T00:10:15;5.30;56.30
31677;DHT22;18385;51.572;6.578;2023-04-03T00:12:41;5.30;56.30
31677;DHT22;18385;51.572;6.578;2023-04-03T00:15:07;5.20;56.20
31677;DHT22;18385;51.572;6.578;2023-04-03T00:17:33;5.20;56.20
31677;DHT22;18385;51.572;6.578;2023-04-03T00:19:59;5.20;56.30
31677;DHT22;18385;51.572;6.578;2023-04-03T00:22:25;5.20;56.40
31677;DHT22;18385;51.572;6.578;2023-04-03T00:24:52;5.10;56.40
31677;DHT22;18385;51.572;6.578;2023-04-03T00:27:17;5.10;56.40
31677;DHT22;18385;51.572;6.578;2023-04-03T00:29:43;5.10;56.40
31677;DHT22;18385;51.572;6.578;2023-04-03T00:32:09;5.10;56.60
31677;DHT22;18385;51.572;6.578;2023-04-03T00:34:35;5.00;56.50
31677;DHT22;18385;51.572;6.578;2023-04-03T00:37:01;5.00;56.60
31677;DHT22;18385;51.572;6.578;2023-04-03T00:39:26;5.00;57.30
31677;DHT22;18385;51.572;6.578;2023-04-03T00:41:52;5.10;56.80
31677;DHT22;18385;51.572;6.578;2023-04-03T00:45:24;5.10;56.80
31677;DHT22;18385;51.572;6.578;2023-04-03T00:47:12;5.10;56.80
31677;DHT22;18385;51.572;6.578;2023-04-03T00:49:38;5.10;56.80
31677;DHT22;18385;51.572;6.578;2023-04-03T00:52:09;5.20;56.80
31677;DHT22;18385;51.572;6.578;2023-04-03T00:54:38;5.20;56.90
31677;DHT22;18385;51.572;6.578;2023-04-03T00:57:05;5.10;56.80
31677;DHT22;18385;51.572;6.578;2023-04-03T00:59:35;5.10;57.00
31677;DHT22;18385;51.572;6.578;2023-04-03T01:02:04;5.20;57.10
31677;DHT22;18385;51.572;6.578;2023-04-03T01:04:42;5.20;57.00
31677;DHT22;18385;51.572;6.578;2023-04-03T01:07:17;5.20;57.10
31677;DHT22;18385;51.572;6.578;2023-04-03T01:09:44;5.20;57.10
31677;DHT22;18385;51.572;6.578;2023-04-03T01:14:41;5.20;57.10
31677;DHT22;18385;51.572;6.578;2023-04-03T01:25:26;5.20;57.20
31677;DHT22;18385;51.572;6.578;2023-04-03T01:27:51;5.20;57.20
31677;DHT22;18385;51.572;6.578;2023-04-03T01:30:19;5.30;57.40
31677;DHT22;18385;51.572;6.578;2023-04-03T01:32:45;5.30;57.30
31677;DHT22;18385;51.572;6.578;2023-04-03T01:35:12;5.30;57.30
31677;DHT22;18385;51.572;6.578;2023-04-03T01:37:38;5.30;57.30
31677;DHT22;18385;51.572;6.578;2023-04-03T01:40:04;5.30;57.30
31677;DHT22;18385;51.572;6.578;2023-04-03T01:42:31;5.30;57.30
31677;DHT22;18385;51.572;6.578;2023-04-03T01:44:57;5.30;57.30
31677;DHT22;18385;51.572;6.578;2023-04-03T01:47:23;5.30;57.40
31677;DHT22;18385;51.572;6.578;2023-04-03T01:49:49;5.20;57.30
31677;DHT22;18385;51.572;6.578;2023-04-03T01:52:15;5.20;57.40
31677;DHT22;18385;51.572;6.578;2023-04-03T01:54:41;5.20;57.50
31677;DHT22;18385;51.572;6.578;2023-04-03T01:57:06;5.20;57.60
31677;DHT22;18385;51.572;6.578;2023-04-03T01:59:32;5.20;57.60
31677;DHT22;18385;51.572;6.578;2023-04-03T02:01:58;5.20;57.60
31677;DHT22;18385;51.572;6.578;2023-04-03T02:04:24;5.20;57.60
31677;DHT22;18385;51.572;6.578;2023-04-03T02:06:49;5.10;57.60
31677;DHT22;18385;51.572;6.578;2023-04-03T02:09:15;5.10;57.60
31677;DHT22;18385;51.572;6.578;2023-04-03T02:11:41;5.10;57.70
31677;DHT22;18385;51.572;6.578;2023-04-03T02:14:06;5.00;57.70
31677;DHT22;18385;51.572;6.578;2023-04-03T02:16:33;5.00;57.80
31677;DHT22;18385;51.572;6.578;2023-04-03T02:18:59;5.00;57.80
31677;DHT22;18385;51.572;6.578;2023-04-03T02:21:24;5.00;57.80
31677;DHT22;18385;51.572;6.578;2023-04-03T02:23:50;5.00;57.90
31677;DHT22;18385;51.572;6.578;2023-04-03T02:26:17;5.00;57.90
31677;DHT22;18385;51.572;6.578;2023-04-03T02:28:44;4.90;57.90
31677;DHT22;18385;51.572;6.578;2023-04-03T02:31:11;4.90;58.00
31677;DHT22;18385;51.572;6.578;2023-04-03T02:33:39;4.90;58.00
31677;DHT22;18385;51.572;6.578;2023-04-03T02:36:08;4.90;58.00
31677;DHT22;18385;51.572;6.578;2023-04-03T02:38:34;4.80;58.00
31677;DHT22;18385;51.572;6.578;2023-04-03T02:41:07;4.80;58.10
31677;DHT22;18385;51.572;6.578;2023-04-03T02:43:33;4.80;58.50
31677;DHT22;18385;51.572;6.578;2023-04-03T02:45:59;4.80;58.10
31677;DHT22;18385;51.572;6.578;2023-04-03T02:48:25;4.80;58.30
31677;DHT22;18385;51.572;6.578;2023-04-03T02:50:51;4.80;58.20
31677;DHT22;18385;51.572;6.578;2023-04-03T02:53:17;4.80;58.20
31677;DHT22;18385;51.572;6.578;2023-04-03T02:55:43;4.80;58.30
31677;DHT22;18385;51.572;6.578;2023-04-03T02:58:09;4.80;58.30
31677;DHT22;18385;51.572;6.578;2023-04-03T03:00:35;4.80;58.30
31677;DHT22;18385;51.572;6.578;2023-04-03T03:03:01;4.80;58.30
31677;DHT22;18385;51.572;6.578;2023-04-03T03:05:27;4.80;58.40
31677;DHT22;18385;51.572;6.578;2023-04-03T03:07:53;4.80;58.50
31677;DHT22;18385;51.572;6.578;2023-04-03T03:10:18;4.80;58.50
31677;DHT22;18385;51.572;6.578;2023-04-03T03:12:45;4.70;58.40
31677;DHT22;18385;51.572;6.578;2023-04-03T03:15:11;4.70;58.50
31677;DHT22;18385;51.572;6.578;2023-04-03T03:17:36;4.70;58.60
31677;DHT22;18385;51.572;6.578;2023-04-03T03:20:04;4.70;58.60
31677;DHT22;18385;51.572;6.578;2023-04-03T03:22:29;4.70;58.50
31677;DHT22;18385;51.572;6.578;2023-04-03T03:24:55;4.60;58.50
31677;DHT22;18385;51.572;6.578;2023-04-03T03:27:21;4.50;58.50
31677;DHT22;18385;51.572;6.578;2023-04-03T03:29:47;4.50;58.60
31677;DHT22;18385;51.572;6.578;2023-04-03T03:32:13;4.40;58.70
31677;DHT22;18385;51.572;6.578;2023-04-03T03:34:38;4.40;58.90
31677;DHT22;18385;51.572;6.578;2023-04-03T03:37:04;4.40;58.90
31677;DHT22;18385;51.572;6.578;2023-04-03T03:39:30;4.40;58.80
31677;DHT22;18385;51.572;6.578;2023-04-03T03:41:56;4.40;59.00
31677;DHT22;18385;51.572;6.578;2023-04-03T03:44:22;4.40;59.00
31677;DHT22;18385;51.572;6.578;2023-04-03T03:46:48;4.50;58.90
31677;DHT22;18385;51.572;6.578;2023-04-03T03:49:13;4.50;59.00
31677;DHT22;18385;51.572;6.578;2023-04-03T03:51:40;4.50;59.00
31677;DHT22;18385;51.572;6.578;2023-04-03T03:54:06;4.50;59.00
31677;DHT22;18385;51.572;6.578;2023-04-03T03:56:33;4.50;59.00
31677;DHT22;18385;51.572;6.578;2023-04-03T03:59:00;4.50;59.00
31677;DHT22;18385;51.572;6.578;2023-04-03T04:01:25;4.40;59.00
31677;DHT22;18385;51.572;6.578;2023-04-03T04:03:51;4.40;59.00
31677;DHT22;18385;51.572;6.578;2023-04-03T04:06:22;4.40;59.00
31677;DHT22;18385;51.572;6.578;2023-04-03T04:08:49;4.30;59.00
31677;DHT22;18385;51.572;6.578;2023-04-03T04:11:14;4.30;59.10
31677;DHT22;18385;51.572;6.578;2023-04-03T04:13:42;4.20;59.10
31677;DHT22;18385;51.572;6.578;2023-04-03T04:16:10;4.20;59.20
31677;DHT22;18385;51.572;6.578;2023-04-03T04:18:37;4.20;59.30
31677;DHT22;18385;51.572;6.578;2023-04-03T04:21:03;4.20;59.30
31677;DHT22;18385;51.572;6.578;2023-04-03T04:23:29;4.20;59.20
31677;DHT22;18385;51.572;6.578;2023-04-03T04:25:57;4.20;59.20
31677;DHT22;18385;51.572;6.578;2023-04-03T04:28:24;4.10;59.20
31677;DHT22;18385;51.572;6.578;2023-04-03T04:30:52;4.10;59.30
31677;DHT22;18385;51.572;6.578;2023-04-03T04:33:19;4.10;59.30
31677;DHT22;18385;51.572;6.578;2023-04-03T04:35:47;4.00;59.40
31677;DHT22;18385;51.572;6.578;2023-04-03T04:38:15;4.00;59.40
31677;DHT22;18385;51.572;6.578;2023-04-03T04:40:41;3.90;59.40
31677;DHT22;18385;51.572;6.578;2023-04-03T04:43:07;3.90;59.60
31677;DHT22;18385;51.572;6.578;2023-04-03T04:45:33;3.90;59.60
31677;DHT22;18385;51.572;6.578;2023-04-03T04:47:59;3.90;59.60
31677;DHT22;18385;51.572;6.578;2023-04-03T04:50:25;3.80;59.60
31677;DHT22;18385;51.572;6.578;2023-04-03T04:52:52;3.80;59.60
31677;DHT22;18385;51.572;6.578;2023-04-03T04:55:18;3.80;59.70
31677;DHT22;18385;51.572;6.578;2023-04-03T04:57:44;3.80;59.70
31677;DHT22;18385;51.572;6.578;2023-04-03T05:00:10;3.80;59.70
31677;DHT22;18385;51.572;6.578;2023-04-03T05:02:36;3.80;59.80
31677;DHT22;18385;51.572;6.578;2023-04-03T05:05:02;3.80;59.80
31677;DHT22;18385;51.572;6.578;2023-04-03T05:07:29;3.80;59.80
31677;DHT22;18385;51.572;6.578;2023-04-03T05:09:56;3.80;59.80
31677;DHT22;18385;51.572;6.578;2023-04-03T05:12:22;3.80;59.90
31677;DHT22;18385;51.572;6.578;2023-04-03T05:14:54;3.80;59.90
31677;DHT22;18385;51.572;6.578;2023-04-03T05:17:20;3.80;60.00
31677;DHT22;18385;51.572;6.578;2023-04-03T05:19:49;3.90;60.00
31677;DHT22;18385;51.572;6.578;2023-04-03T05:22:19;3.90;60.00
31677;DHT22;18385;51.572;6.578;2023-04-03T05:24:44;3.80;59.90
31677;DHT22;18385;51.572;6.578;2023-04-03T05:27:11;3.80;60.00
31677;DHT22;18385;51.572;6.578;2023-04-03T05:29:40;3.90;60.00
31677;DHT22;18385;51.572;6.578;2023-04-03T05:32:10;3.90;60.00
31677;DHT22;18385;51.572;6.578;2023-04-03T05:34:36;3.90;60.00
31677;DHT22;18385;51.572;6.578;2023-04-03T05:37:02;3.90;60.00
31677;DHT22;18385;51.572;6.578;2023-04-03T05:39:30;3.90;60.00
31677;DHT22;18385;51.572;6.578;2023-04-03T05:41:58;3.90;60.00
31677;DHT22;18385;51.572;6.578;2023-04-03T05:44:24;3.90;60.00
31677;DHT22;18385;51.572;6.578;2023-04-03T05:46:50;4.00;60.20
31677;DHT22;18385;51.572;6.578;2023-04-03T05:49:16;4.00;60.20
31677;DHT22;18385;51.572;6.578;2023-04-03T05:51:42;4.10;60.30
31677;DHT22;18385;51.572;6.578;2023-04-03T05:54:28;4.10;60.30
31677;DHT22;18385;51.572;6.578;2023-04-03T05:57:01;4.20;60.30
31677;DHT22;18385;51.572;6.578;2023-04-03T05:59:27;4.20;60.20
31677;DHT22;18385;51.572;6.578;2023-04-03T06:01:56;4.20;60.20
31677;DHT22;18385;51.572;6.578;2023-04-03T06:04:21;4.30;60.20
31677;DHT22;18385;51.572;6.578;2023-04-03T06:06:50;4.30;60.20
31677;DHT22;18385;51.572;6.578;2023-04-03T06:09:20;4.30;60.20
31677;DHT22;18385;51.572;6.578;2023-04-03T06:11:47;4.40;60.20
31677;DHT22;18385;51.572;6.578;2023-04-03T06:14:13;4.40;60.30
31677;DHT22;18385;51.572;6.578;2023-04-03T06:16:39;4.40;60.20
31677;DHT22;18385;51.572;6.578;2023-04-03T06:19:08;4.50;60.20
31677;DHT22;18385;51.572;6.578;2023-04-03T06:21:35;4.50;60.30
31677;DHT22;18385;51.572;6.578;2023-04-03T06:24:03;4.60;60.30
31677;DHT22;18385;51.572;6.578;2023-04-03T06:26:29;4.70;60.30
31677;DHT22;18385;51.572;6.578;2023-04-03T06:28:55;4.70;60.20
31677;DHT22;18385;51.572;6.578;2023-04-03T06:31:21;4.80;60.20
31677;DHT22;18385;51.572;6.578;2023-04-03T06:33:47;4.80;60.20
31677;DHT22;18385;51.572;6.578;2023-04-03T06:36:12;4.90;60.10
31677;DHT22;18385;51.572;6.578;2023-04-03T06:38:38;4.90;60.10
31677;DHT22;18385;51.572;6.578;2023-04-03T06:41:04;5.00;60.20
31677;DHT22;18385;51.572;6.578;2023-04-03T06:43:30;5.00;60.10
31677;DHT22;18385;51.572;6.578;2023-04-03T06:45:57;5.10;60.10
31677;DHT22;18385;51.572;6.578;2023-04-03T06:48:22;5.20;60.20
31677;DHT22;18385;51.572;6.578;2023-04-03T06:50:48;5.30;60.10
31677;DHT22;18385;51.572;6.578;2023-04-03T06:53:14;5.30;60.00
31677;DHT22;18385;51.572;6.578;2023-04-03T06:55:40;5.40;60.00
31677;DHT22;18385;51.572;6.578;2023-04-03T06:58:07;5.40;60.00
31677;DHT22;18385;51.572;6.578;2023-04-03T07:00:32;5.50;60.00
31677;DHT22;18385;51.572;6.578;2023-04-03T07:02:59;5.50;59.90
31677;DHT22;18385;51.572;6.578;2023-04-03T07:05:25;5.60;59.90
31677;DHT22;18385;51.572;6.578;2023-04-03T07:07:52;5.70;60.00
31677;DHT22;18385;51.572;6.578;2023-04-03T07:10:18;5.70;59.90
31677;DHT22;18385;51.572;6.578;2023-04-03T07:12:44;5.80;59.90
31677;DHT22;18385;51.572;6.578;2023-04-03T07:15:10;5.90;59.90
31677;DHT22;18385;51.572;6.578;2023-04-03T07:17:37;5.90;59.80
31677;DHT22;18385;51.572;6.578;2023-04-03T07:20:04;6.00;59.80
31677;DHT22;18385;51.572;6.578;2023-04-03T07:22:30;6.10;59.80
31677;DHT22;18385;51.572;6.578;2023-04-03T07:24:56;6.10;59.80
31677;DHT22;18385;51.572;6.578;2023-04-03T07:27:22;6.10;59.70
31677;DHT22;18385;51.572;6.578;2023-04-03T07:29:47;6.20;59.70
31677;DHT22;18385;51.572;6.578;2023-04-03T07:32:14;6.30;59.70
31677;DHT22;18385;51.572;6.578;2023-04-03T07:34:43;6.30;59.70
31677;DHT22;18385;51.572;6.578;2023-04-03T07:37:08;6.40;59.60
31677;DHT22;18385;51.572;6.578;2023-04-03T07:39:34;6.50;59.60
31677;DHT22;18385;51.572;6.578;2023-04-03T07:42:01;6.50;59.60
31677;DHT22;18385;51.572;6.578;2023-04-03T07:44:27;6.60;59.50
31677;DHT22;18385;51.572;6.578;2023-04-03T07:46:53;6.60;59.40
31677;DHT22;18385;51.572;6.578;2023-04-03T07:49:21;6.70;59.40
31677;DHT22;18385;51.572;6.578;2023-04-03T07:51:48;6.70;59.30
31677;DHT22;18385;51.572;6.578;2023-04-03T07:54:14;6.80;59.20
31677;DHT22;18385;51.572;6.578;2023-04-03T07:56:40;6.80;59.90
31677;DHT22;18385;51.572;6.578;2023-04-03T07:59:11;6.90;59.20
31677;DHT22;18385;51.572;6.578;2023-04-03T08:01:37;6.90;59.10
31677;DHT22;18385;51.572;6.578;2023-04-03T08:04:02;7.00;59.10
31677;DHT22;18385;51.572;6.578;2023-04-03T08:06:28;7.00;59.10
31677;DHT22;18385;51.572;6.578;2023-04-03T08:08:58;7.10;59.10
31677;DHT22;18385;51.572;6.578;2023-04-03T08:11:24;7.10;59.10
31677;DHT22;18385;51.572;6.578;2023-04-03T08:13:52;7.10;59.00
31677;DHT22;18385;51.572;6.578;2023-04-03T08:16:20;7.20;59.00
31677;DHT22;18385;51.572;6.578;2023-04-03T08:18:48;7.20;58.90
31677;DHT22;18385;51.572;6.578;2023-04-03T08:21:13;7.20;58.90
31677;DHT22;18385;51.572;6.578;2023-04-03T08:23:40;7.30;58.90
31677;DHT22;18385;51.572;6.578;2023-04-03T08:26:12;7.30;58.90
31677;DHT22;18385;51.572;6.578;2023-04-03T08:28:38;7.40;58.80
31677;DHT22;18385;51.572;6.578;2023-04-03T08:31:12;7.40;58.70
31677;DHT22;18385;51.572;6.578;2023-04-03T08:33:39;7.60;58.70
31677;DHT22;18385;51.572;6.578;2023-04-03T08:36:07;7.70;58.60
31677;DHT22;18385;51.572;6.578;2023-04-03T08:38:36;7.80;58.50
31677;DHT22;18385;51.572;6.578;2023-04-03T08:47:18;8.00;58.10
31677;DHT22;18385;51.572;6.578;2023-04-03T08:50:07;8.00;58.20
31677;DHT22;18385;51.572;6.578;2023-04-03T08:52:50;8.10;57.90
31677;DHT22;18385;51.572;6.578;2023-04-03T08:55:24;8.20;57.90
31677;DHT22;18385;51.572;6.578;2023-04-03T08:57:58;8.30;57.70
31677;DHT22;18385;51.572;6.578;2023-04-03T09:00:28;8.30;57.70
31677;DHT22;18385;51.572;6.578;2023-04-03T09:02:56;8.40;57.30
31677;DHT22;18385;51.572;6.578;2023-04-03T09:08:22;8.50;57.00
31677;DHT22;18385;51.572;6.578;2023-04-03T09:10:52;8.50;56.90
31677;DHT22;18385;51.572;6.578;2023-04-03T09:16:33;8.70;56.70
31677;DHT22;18385;51.572;6.578;2023-04-03T09:22:08;8.90;56.60
31677;DHT22;18385;51.572;6.578;2023-04-03T09:24:36;9.00;56.40
31677;DHT22;18385;51.572;6.578;2023-04-03T09:27:09;9.10;56.40
31677;DHT22;18385;51.572;6.578;2023-04-03T09:29:41;9.20;55.90
31677;DHT22;18385;51.572;6.578;2023-04-03T09:32:32;9.20;55.60
31677;DHT22;18385;51.572;6.578;2023-04-03T09:35:31;9.20;55.40
31677;DHT22;18385;51.572;6.578;2023-04-03T09:38:14;9.20;55.20
31677;DHT22;18385;51.572;6.578;2023-04-03T09:40:42;9.20;55.50
31677;DHT22;18385;51.572;6.578;2023-04-03T09:45:53;9.40;54.90
31677;DHT22;18385;51.572;6.578;2023-04-03T09:48:25;9.50;54.90
31677;DHT22;18385;51.572;6.578;2023-04-03T09:53:33;9.50;54.20
31677;DHT22;18385;51.572;6.578;2023-04-03T09:56:02;9.60;54.00
31677;DHT22;18385;51.572;6.578;2023-04-03T09:58:31;9.70;53.80
31677;DHT22;18385;51.572;6.578;2023-04-03T10:01:00;9.80;53.70
31677;DHT22;18385;51.572;6.578;2023-04-03T10:03:36;9.80;53.50
31677;DHT22;18385;51.572;6.578;2023-04-03T10:06:23;9.90;53.80
31677;DHT22;18385;51.572;6.578;2023-04-03T10:09:00;10.00;53.20
31677;DHT22;18385;51.572;6.578;2023-04-03T10:11:26;10.00;52.30
31677;DHT22;18385;51.572;6.578;2023-04-03T10:14:03;10.00;52.40
31677;DHT22;18385;51.572;6.578;2023-04-03T10:16:48;10.10;52.10
31677;DHT22;18385;51.572;6.578;2023-04-03T10:19:25;10.10;51.70
31677;DHT22;18385;51.572;6.578;2023-04-03T10:22:24;10.10;51.80
31677;DHT22;18385;51.572;6.578;2023-04-03T10:25:00;10.10;51.40
31677;DHT22;18385;51.572;6.578;2023-04-03T10:27:46;10.20;51.50
31677;DHT22;18385;51.572;6.578;2023-04-03T10:33:29;10.30;51.20
31677;DHT22;18385;51.572;6.578;2023-04-03T10:39:10;10.50;50.40
31677;DHT22;18385;51.572;6.578;2023-04-03T10:50:26;10.80;49.50
31677;DHT22;18385;51.572;6.578;2023-04-03T10:53:01;10.90;49.40
31677;DHT22;18385;51.572;6.578;2023-04-03T11:00:59;11.10;48.80
31677;DHT22;18385;51.572;6.578;2023-04-03T11:03:41;11.20;49.00
31677;DHT22;18385;51.572;6.578;2023-04-03T11:06:12;11.30;48.80
31677;DHT22;18385;51.572;6.578;2023-04-03T11:08:46;11.30;48.10
31677;DHT22;18385;51.572;6.578;2023-04-03T11:11:22;11.30;47.80
31677;DHT22;18385;51.572;6.578;2023-04-03T11:14:09;11.30;48.00
31677;DHT22;18385;51.572;6.578;2023-04-03T11:16:45;11.40;47.90
31677;DHT22;18385;51.572;6.578;2023-04-03T11:19:18;11.50;47.50
31677;DHT22;18385;51.572;6.578;2023-04-03T11:22:11;11.50;47.40
31677;DHT22;18385;51.572;6.578;2023-04-03T11:24:43;11.60;47.40
31677;DHT22;18385;51.572;6.578;2023-04-03T11:27:19;11.60;47.10
31677;DHT22;18385;51.572;6.578;2023-04-03T11:29:49;11.60;46.70
31677;DHT22;18385;51.572;6.578;2023-04-03T11:32:48;11.70;46.80
31677;DHT22;18385;51.572;6.578;2023-04-03T11:35:17;11.70;46.40
31677;DHT22;18385;51.572;6.578;2023-04-03T11:37:49;11.60;46.30
31677;DHT22;18385;51.572;6.578;2023-04-03T11:43:03;11.70;46.40
31677;DHT22;18385;51.572;6.578;2023-04-03T11:50:45;12.10;46.00
31677;DHT22;18385;51.572;6.578;2023-04-03T11:56:30;12.00;45.70
31677;DHT22;18385;51.572;6.578;2023-04-03T11:58:33;12.10;45.60
31677;DHT22;18385;51.572;6.578;2023-04-03T12:03:33;12.30;45.40
31677;DHT22;18385;51.572;6.578;2023-04-03T12:16:09;12.50;44.50
31677;DHT22;18385;51.572;6.578;2023-04-03T12:26:44;12.90;44.20
31677;DHT22;18385;51.572;6.578;2023-04-03T12:29:20;13.00;44.10
31677;DHT22;18385;51.572;6.578;2023-04-03T12:32:10;13.10;43.70
31677;DHT22;18385;51.572;6.578;2023-04-03T12:43:33;13.30;43.50
31677;DHT22;18385;51.572;6.578;2023-04-03T12:48:50;13.20;43.10
31677;DHT22;18385;51.572;6.578;2023-04-03T12:51:27;13.30;42.90
31677;DHT22;18385;51.572;6.578;2023-04-03T12:54:42;13.30;43.20
31677;DHT22;18385;51.572;6.578;2023-04-03T12:56:42;13.40;42.70
31677;DHT22;18385;51.572;6.578;2023-04-03T12:59:16;13.40;42.40
31677;DHT22;18385;51.572;6.578;2023-04-03T13:01:44;13.50;42.40
31677;DHT22;18385;51.572;6.578;2023-04-03T13:04:17;13.60;42.30
31677;DHT22;18385;51.572;6.578;2023-04-03T13:06:44;13.80;42.60
31677;DHT22;18385;51.572;6.578;2023-04-03T13:11:51;14.00;41.60
31677;DHT22;18385;51.572;6.578;2023-04-03T13:14:24;14.00;41.50
31677;DHT22;18385;51.572;6.578;2023-04-03T13:16:57;14.00;41.70
31677;DHT22;18385;51.572;6.578;2023-04-03T13:19:25;14.20;41.80
31677;DHT22;18385;51.572;6.578;2023-04-03T13:21:59;14.40;41.70
31677;DHT22;18385;51.572;6.578;2023-04-03T13:24:26;14.60;41.30
31677;DHT22;18385;51.572;6.578;2023-04-03T13:26:53;15.10;42.40
31677;DHT22;18385;51.572;6.578;2023-04-03T13:29:34;15.70;42.70
31677;DHT22;18385;51.572;6.578;2023-04-03T13:32:01;16.40;42.60
31677;DHT22;18385;51.572;6.578;2023-04-03T13:34:35;16.80;42.20
31677;DHT22;18385;51.572;6.578;2023-04-03T13:37:03;17.30;42.20
31677;DHT22;18385;51.572;6.578;2023-04-03T13:39:37;17.80;41.40
31677;DHT22;18385;51.572;6.578;2023-04-03T13:42:23;18.10;40.60
31677;DHT22;18385;51.572;6.578;2023-04-03T13:44:49;18.30;40.70
31677;DHT22;18385;51.572;6.578;2023-04-03T13:47:39;18.40;39.80
31677;DHT22;18385;51.572;6.578;2023-04-03T13:52:49;18.90;39.30
31677;DHT22;18385;51.572;6.578;2023-04-03T14:00:48;19.80;38.00
31677;DHT22;18385;51.572;6.578;2023-04-03T14:05:44;19.80;37.00
31677;DHT22;18385;51.572;6.578;2023-04-03T14:08:10;20.10;37.40
31677;DHT22;18385;51.572;6.578;2023-04-03T14:10:37;20.60;37.00
31677;DHT22;18385;51.572;6.578;2023-04-03T14:13:03;21.10;36.20
31677;DHT22;18385;51.572;6.578;2023-04-03T14:15:30;21.20;35.20
31677;DHT22;18385;51.572;6.578;2023-04-03T14:17:57;21.40;34.70
31677;DHT22;18385;51.572;6.578;2023-04-03T14:20:26;21.40;34.30
31677;DHT22;18385;51.572;6.578;2023-04-03T14:22:53;21.60;34.40
31677;DHT22;18385;51.572;6.578;2023-04-03T14:25:20;21.80;33.80
31677;DHT22;18385;51.572;6.578;2023-04-03T14:27:50;21.80;33.40
31677;DHT22;18385;51.572;6.578;2023-04-03T14:30:24;21.90;32.80
31677;DHT22;18385;51.572;6.578;2023-04-03T14:32:50;22.20;32.70
31677;DHT22;18385;51.572;6.578;2023-04-03T14:35:17;22.20;31.80
31677;DHT22;18385;51.572;6.578;2023-04-03T14:37:42;22.40;31.60
31677;DHT22;18385;51.572;6.578;2023-04-03T14:40:13;22.60;31.10
31677;DHT22;18385;51.572;6.578;2023-04-03T14:42:40;22.60;30.30
31677;DHT22;18385;51.572;6.578;2023-04-03T14:45:09;22.70;30.40
31677;DHT22;18385;51.572;6.578;2023-04-03T14:47:39;23.00;30.50
31677;DHT22;18385;51.572;6.578;2023-04-03T14:50:10;23.50;30.00
31677;DHT22;18385;51.572;6.578;2023-04-03T14:52:36;23.90;29.70
31677;DHT22;18385;51.572;6.578;2023-04-03T14:55:04;24.00;29.20
31677;DHT22;18385;51.572;6.578;2023-04-03T14:57:31;23.90;28.70
31677;DHT22;18385;51.572;6.578;2023-04-03T14:59:57;23.90;29.70
31677;DHT22;18385;51.572;6.578;2023-04-03T15:02:30;23.90;29.00
31677;DHT22;18385;51.572;6.578;2023-04-03T15:04:57;24.10;28.60
31677;DHT22;18385;51.572;6.578;2023-04-03T15:07:25;24.50;28.30
31677;DHT22;18385;51.572;6.578;2023-04-03T15:09:51;24.70;28.00
31677;DHT22;18385;51.572;6.578;2023-04-03T15:12:17;24.90;28.20
31677;DHT22;18385;51.572;6.578;2023-04-03T15:14:43;25.40;27.90
31677;DHT22;18385;51.572;6.578;2023-04-03T15:17:17;25.50;27.20
31677;DHT22;18385;51.572;6.578;2023-04-03T15:19:45;25.50;26.80
31677;DHT22;18385;51.572;6.578;2023-04-03T15:22:16;25.60;26.90
31677;DHT22;18385;51.572;6.578;2023-04-03T15:24:43;25.70;26.30
31677;DHT22;18385;51.572;6.578;2023-04-03T15:27:09;25.60;26.40
31677;DHT22;18385;51.572;6.578;2023-04-03T15:29:37;25.20;26.40
31677;DHT22;18385;51.572;6.578;2023-04-03T15:32:03;24.80;26.20
31677;DHT22;18385;51.572;6.578;2023-04-03T15:34:29;24.40;26.00
31677;DHT22;18385;51.572;6.578;2023-04-03T15:36:54;23.90;26.40
31677;DHT22;18385;51.572;6.578;2023-04-03T15:39:21;23.60;26.00
31677;DHT22;18385;51.572;6.578;2023-04-03T15:41:48;22.90;26.10
31677;DHT22;18385;51.572;6.578;2023-04-03T15:44:14;22.00;26.20
31677;DHT22;18385;51.572;6.578;2023-04-03T15:46:43;21.10;26.60
31677;DHT22;18385;51.572;6.578;2023-04-03T15:49:09;20.60;27.20
31677;DHT22;18385;51.572;6.578;2023-04-03T15:51:35;20.20;27.00
31677;DHT22;18385;51.572;6.578;2023-04-03T15:54:01;19.80;27.00
31677;DHT22;18385;51.572;6.578;2023-04-03T15:56:26;19.80;27.40
31677;DHT22;18385;51.572;6.578;2023-04-03T15:58:52;19.60;27.00
31677;DHT22;18385;51.572;6.578;2023-04-03T16:01:17;19.30;26.90
31677;DHT22;18385;51.572;6.578;2023-04-03T16:03:43;18.80;27.10
31677;DHT22;18385;51.572;6.578;2023-04-03T16:06:14;18.60;27.50
31677;DHT22;18385;51.572;6.578;2023-04-03T16:08:41;18.20;27.50
31677;DHT22;18385;51.572;6.578;2023-04-03T16:11:07;17.90;27.80
31677;DHT22;18385;51.572;6.578;2023-04-03T16:13:33;17.90;28.10
31677;DHT22;18385;51.572;6.578;2023-04-03T16:16:00;18.10;27.90
31677;DHT22;18385;51.572;6.578;2023-04-03T16:18:28;18.10;27.60
31677;DHT22;18385;51.572;6.578;2023-04-03T16:20:54;18.30;27.60
31677;DHT22;18385;51.572;6.578;2023-04-03T16:23:20;18.30;27.50
31677;DHT22;18385;51.572;6.578;2023-04-03T16:25:46;18.00;27.60
31677;DHT22;18385;51.572;6.578;2023-04-03T16:28:16;17.90;27.70
31677;DHT22;18385;51.572;6.578;2023-04-03T16:30:44;17.50;27.90
31677;DHT22;18385;51.572;6.578;2023-04-03T16:33:12;17.20;28.00
31677;DHT22;18385;51.572;6.578;2023-04-03T16:35:38;17.20;28.20
31677;DHT22;18385;51.572;6.578;2023-04-03T16:38:04;17.10;28.30
31677;DHT22;18385;51.572;6.578;2023-04-03T16:40:30;16.70;28.40
31677;DHT22;18385;51.572;6.578;2023-04-03T16:43:00;16.30;28.40
31677;DHT22;18385;51.572;6.578;2023-04-03T16:45:26;16.00;28.80
31677;DHT22;18385;51.572;6.578;2023-04-03T16:47:51;16.00;28.90
31677;DHT22;18385;51.572;6.578;2023-04-03T16:50:17;16.20;28.80
31677;DHT22;18385;51.572;6.578;2023-04-03T16:52:45;16.40;28.90
31677;DHT22;18385;51.572;6.578;2023-04-03T16:55:11;16.40;28.70
31677;DHT22;18385;51.572;6.578;2023-04-03T16:57:37;16.30;28.90
31677;DHT22;18385;51.572;6.578;2023-04-03T17:00:03;16.50;28.90
31677;DHT22;18385;51.572;6.578;2023-04-03T17:02:29;16.30;28.80
31677;DHT22;18385;51.572;6.578;2023-04-03T17:04:55;15.90;28.60
31677;DHT22;18385;51.572;6.578;2023-04-03T17:07:22;15.40;28.70
31677;DHT22;18385;51.572;6.578;2023-04-03T17:09:48;14.80;29.00
31677;DHT22;18385;51.572;6.578;2023-04-03T17:12:14;14.30;29.90
31677;DHT22;18385;51.572;6.578;2023-04-03T17:14:41;13.90;29.80
31677;DHT22;18385;51.572;6.578;2023-04-03T17:17:07;13.60;30.00
31677;DHT22;18385;51.572;6.578;2023-04-03T17:19:34;13.30;30.30
31677;DHT22;18385;51.572;6.578;2023-04-03T17:22:00;13.10;30.50
31677;DHT22;18385;51.572;6.578;2023-04-03T17:24:27;12.90;30.70
31677;DHT22;18385;51.572;6.578;2023-04-03T17:26:53;12.80;30.80
31677;DHT22;18385;51.572;6.578;2023-04-03T17:29:18;12.60;30.90
31677;DHT22;18385;51.572;6.578;2023-04-03T17:31:44;12.50;31.10
31677;DHT22;18385;51.572;6.578;2023-04-03T17:34:10;12.40;31.20
31677;DHT22;18385;51.572;6.578;2023-04-03T17:36:37;12.30;31.30